createdAt,value
2022-09-15T00:00:29.120Z,97565.31
2022-09-15T00:02:55.932Z,97566.91
2022-09-15T00:05:22.497Z,97573.25
2022-09-15T00:07:48.950Z,97573.63
2022-09-15T00:10:15.491Z,97561.81
2022-09-15T00:12:42.025Z,97566.19
2022-09-15T00:15:08.877Z,97557.09
2022-09-15T00:17:35.316Z,97548.91
2022-09-15T00:20:02.042Z,97557.50
2022-09-15T00:22:28.424Z,97552.78
2022-09-15T00:24:54.837Z,97555.88
2022-09-15T00:27:21.206Z,97558.16
2022-09-15T00:29:47.571Z,97558.16
2022-09-15T00:32:13.965Z,97550.66
2022-09-15T00:34:40.375Z,97552.25
2022-09-15T00:37:07.129Z,97548.72
2022-09-15T00:39:33.500Z,97551.06
2022-09-15T00:41:59.877Z,97553.78
2022-09-15T00:44:35.447Z,97551.88
2022-09-15T00:47:18.828Z,97548.81
2022-09-15T00:49:48.415Z,97542.50
2022-09-15T00:52:40.790Z,97548.00
2022-09-15T00:55:29.005Z,97544.09
2022-09-15T00:58:07.034Z,97542.50
2022-09-15T01:00:34.834Z,97546.38
2022-09-15T01:03:02.267Z,97556.56
2022-09-15T01:05:45.591Z,97556.22
2022-09-15T01:08:22.104Z,97550.75
2022-09-15T01:10:49.180Z,97551.88
2022-09-15T01:13:15.585Z,97537.72
2022-09-15T01:16:13.593Z,97545.56
2022-09-15T01:19:04.983Z,97547.84
2022-09-15T01:21:45.127Z,97542.34
2022-09-15T01:24:33.481Z,97542.72
2022-09-15T01:27:41.439Z,97542.28
2022-09-15T01:30:15.300Z,97539.09
2022-09-15T01:33:06.607Z,97524.97
2022-09-15T01:36:05.431Z,97521.38
2022-09-15T01:38:42.061Z,97513.88
2022-09-15T01:41:11.504Z,97513.09
2022-09-15T01:43:44.303Z,97506.81
2022-09-15T01:46:12.054Z,97502.91
2022-09-15T01:48:39.453Z,97511.44
2022-09-15T01:51:07.003Z,97509.13
2022-09-15T01:53:34.250Z,97505.97
2022-09-15T01:56:09.939Z,97510.66
2022-09-15T01:58:38.572Z,97507.91
2022-09-15T02:01:11.368Z,97509.88
2022-09-15T02:03:51.613Z,97500.41
2022-09-15T02:06:49.581Z,97516.47
2022-09-15T02:09:28.108Z,97513.69
2022-09-15T02:12:03.376Z,97511.34
2022-09-15T02:14:48.049Z,97507.84
2022-09-15T02:17:18.920Z,97510.59
2022-09-15T02:19:50.435Z,97517.69
2022-09-15T02:22:30.630Z,97517.69
2022-09-15T02:25:04.899Z,97526.34
2022-09-15T02:27:37.797Z,97516.16
2022-09-15T02:30:11.612Z,97520.88
2022-09-15T02:32:46.598Z,97518.16
2022-09-15T02:35:15.830Z,97522.84
2022-09-15T02:37:43.199Z,97518.53
2022-09-15T02:40:10.462Z,97520.84
2022-09-15T02:42:37.044Z,97516.53
2022-09-15T02:45:04.400Z,97512.19
2022-09-15T02:47:31.977Z,97507.91
2022-09-15T02:49:58.542Z,97505.22
2022-09-15T02:52:26.084Z,97504.50
2022-09-15T02:54:52.472Z,97500.56
2022-09-15T02:57:18.825Z,97496.66
2022-09-15T03:00:03.817Z,97496.66
2022-09-15T03:02:31.274Z,97491.94
2022-09-15T03:04:57.722Z,97502.91
2022-09-15T03:07:24.818Z,97500.16
2022-09-15T03:09:51.169Z,97506.06
2022-09-15T03:12:17.674Z,97495.84
2022-09-15T03:14:44.412Z,97499.72
2022-09-15T03:17:10.761Z,97500.09
2022-09-15T03:19:37.268Z,97500.47
2022-09-15T03:22:03.653Z,97491.44
2022-09-15T03:24:30.077Z,97495.00
2022-09-15T03:26:56.462Z,97487.91
2022-09-15T03:29:23.003Z,97491.81
2022-09-15T03:31:49.774Z,97491.81
2022-09-15T03:34:16.318Z,97502.00
2022-09-15T03:36:43.076Z,97495.75
2022-09-15T03:39:11.824Z,97502.00
2022-09-15T03:41:38.411Z,97498.09
2022-09-15T03:44:04.782Z,97498.09
2022-09-15T03:46:31.194Z,97495.75
2022-09-15T03:48:57.565Z,97506.72
2022-09-15T03:51:24.092Z,97497.31
2022-09-15T03:53:50.518Z,97494.13
2022-09-15T03:56:19.759Z,97503.53
2022-09-15T03:58:46.092Z,97501.16
2022-09-15T04:01:12.652Z,97500.00
2022-09-15T04:03:45.284Z,97500.00
2022-09-15T04:06:15.048Z,97498.03
2022-09-15T04:08:41.855Z,97494.91
2022-09-15T04:11:10.543Z,97499.63
2022-09-15T04:13:38.629Z,97506.72
2022-09-15T04:16:08.096Z,97505.19
2022-09-15T04:18:35.678Z,97502.06
2022-09-15T04:21:06.919Z,97498.16
2022-09-15T04:23:33.819Z,97503.28
2022-09-15T04:26:05.948Z,97506.38
2022-09-15T04:28:34.402Z,97506.03
2022-09-15T04:31:12.741Z,97510.34
2022-09-15T04:33:40.689Z,97506.03
2022-09-15T04:36:13.103Z,97498.16
2022-09-15T04:38:39.554Z,97502.06
2022-09-15T04:41:07.007Z,97503.22
2022-09-15T04:43:33.792Z,97503.22
2022-09-15T04:46:00.615Z,97498.53
2022-09-15T04:48:27.819Z,97502.84
2022-09-15T04:50:54.685Z,97493.41
2022-09-15T04:53:21.400Z,97500.09
2022-09-15T04:55:48.064Z,97494.22
2022-09-15T04:58:14.404Z,97498.59
2022-09-15T05:00:45.929Z,97509.91
2022-09-15T05:03:13.979Z,97508.72
2022-09-15T05:05:41.170Z,97508.28
2022-09-15T05:08:08.084Z,97514.94
2022-09-15T05:10:34.504Z,97521.16
2022-09-15T05:13:00.865Z,97523.13
2022-09-15T05:15:27.225Z,97512.09
2022-09-15T05:17:53.631Z,97522.25
2022-09-15T05:20:20.190Z,97519.88
2022-09-15T05:22:46.620Z,97526.53
2022-09-15T05:25:13.110Z,97519.09
2022-09-15T05:27:39.724Z,97524.66
2022-09-15T05:30:35.197Z,97527.81
2022-09-15T05:32:53.829Z,97528.19
2022-09-15T05:35:20.223Z,97521.47
2022-09-15T05:37:46.604Z,97529.66
2022-09-15T05:40:12.992Z,97528.41
2022-09-15T05:42:40.459Z,97529.53
2022-09-15T05:45:07.597Z,97522.09
2022-09-15T05:47:34.099Z,97523.69
2022-09-15T05:50:00.457Z,97529.91
2022-09-15T05:52:26.848Z,97529.91
2022-09-15T05:54:58.320Z,97527.59
2022-09-15T05:57:25.526Z,97532.69
2022-09-15T05:59:51.990Z,97524.09
2022-09-15T06:02:18.400Z,97531.59
2022-09-15T06:04:44.783Z,97529.28
2022-09-15T06:07:11.200Z,97529.38
2022-09-15T06:09:37.847Z,97532.53
2022-09-15T06:12:04.294Z,97531.03
2022-09-15T06:14:30.738Z,97534.19
2022-09-15T06:16:57.182Z,97533.41
2022-09-15T06:19:23.951Z,97527.91
2022-09-15T06:21:52.421Z,97524.38
2022-09-15T06:24:18.841Z,97527.16
2022-09-15T06:26:45.570Z,97536.63
2022-09-15T06:29:12.861Z,97538.53
2022-09-15T06:31:39.585Z,97543.09
2022-09-15T06:34:06.959Z,97566.97
2022-09-15T06:36:34.007Z,97566.81
2022-09-15T06:39:00.538Z,97560.44
2022-09-15T06:41:38.155Z,97551.66
2022-09-15T06:44:09.737Z,97564.06
2022-09-15T06:46:36.396Z,97567.94
2022-09-15T06:49:02.894Z,97560.75
2022-09-15T06:51:36.867Z,97573.66
2022-09-15T06:54:04.520Z,97588.94
2022-09-15T06:56:34.583Z,97583.00
2022-09-15T06:59:06.625Z,97583.28
2022-09-15T07:01:33.652Z,97595.41
2022-09-15T07:04:02.870Z,97582.81
2022-09-15T07:06:31.438Z,97588.66
2022-09-15T07:09:01.107Z,97591.75
2022-09-15T07:11:27.987Z,97585.88
2022-09-15T07:13:54.765Z,97588.97
2022-09-15T07:16:23.333Z,97588.59
2022-09-15T07:18:52.437Z,97583.91
2022-09-15T07:21:20.329Z,97587.44
2022-09-15T07:23:47.552Z,97594.13
2022-09-15T07:26:23.991Z,97588.66
2022-09-15T07:28:54.144Z,97580.06
2022-09-15T07:31:25.076Z,97588.28
2022-09-15T07:33:51.948Z,97584.88
2022-09-15T07:36:19.395Z,97596.69
2022-09-15T07:38:49.959Z,97592.81
2022-09-15T07:41:21.663Z,97597.63
2022-09-15T07:43:50.113Z,97589.88
2022-09-15T07:46:18.382Z,97596.22
2022-09-15T07:48:49.698Z,97589.28
2022-09-15T07:51:17.594Z,97603.84
2022-09-15T07:53:46.032Z,97599.50
2022-09-15T07:56:13.356Z,97599.97
2022-09-15T07:58:39.846Z,97600.28
2022-09-15T08:01:11.529Z,97611.34
2022-09-15T08:03:48.574Z,97609.75
2022-09-15T08:06:17.224Z,97617.63
2022-09-15T08:08:47.271Z,97621.53
2022-09-15T08:11:19.744Z,97625.47
2022-09-15T08:13:47.823Z,97624.31
2022-09-15T08:16:16.959Z,97631.84
2022-09-15T08:18:44.677Z,97629.81
2022-09-15T08:21:15.818Z,97633.34
2022-09-15T08:23:43.101Z,97635.75
2022-09-15T08:26:14.326Z,97643.53
2022-09-15T08:28:42.614Z,97647.00
2022-09-15T08:31:11.676Z,97644.63
2022-09-15T08:33:44.611Z,97648.97
2022-09-15T08:36:12.782Z,97645.78
2022-09-15T08:38:41.117Z,97654.03
2022-09-15T08:41:13.821Z,97650.50
2022-09-15T08:44:03.721Z,97652.13
2022-09-15T08:46:38.553Z,97653.03
2022-09-15T08:49:23.475Z,97649.28
2022-09-15T08:52:03.398Z,97650.88
2022-09-15T08:54:31.565Z,97653.66
2022-09-15T08:56:58.805Z,97664.25
2022-09-15T08:59:34.571Z,97658.66
2022-09-15T09:02:15.006Z,97656.78
2022-09-15T09:05:12.517Z,97653.28
2022-09-15T09:08:14.708Z,97657.28
2022-09-15T09:11:01.278Z,97658.09
2022-09-15T09:13:41.328Z,97662.50
2022-09-15T09:16:23.006Z,97664.97
2022-09-15T09:19:16.352Z,97660.97
2022-09-15T09:22:01.619Z,97655.06
2022-09-15T09:24:39.932Z,97676.97
2022-09-15T09:27:21.602Z,97680.72
2022-09-15T09:29:55.457Z,97678.34
2022-09-15T09:32:33.948Z,97678.22
2022-09-15T09:35:35.123Z,97673.47
2022-09-15T09:38:02.835Z,97675.72
2022-09-15T09:40:34.908Z,97679.13
2022-09-15T09:43:01.745Z,97677.75
2022-09-15T09:45:30.222Z,97680.81
2022-09-15T09:48:02.801Z,97680.69
2022-09-15T09:50:35.013Z,97681.34
2022-09-15T09:53:23.679Z,97684.97
2022-09-15T09:55:50.219Z,97672.97
2022-09-15T09:58:29.409Z,97681.16
2022-09-15T10:01:14.384Z,97682.16
2022-09-15T10:03:47.278Z,97679.09
2022-09-15T10:06:17.030Z,97679.28
2022-09-15T10:09:00.208Z,97668.91
2022-09-15T10:11:44.602Z,97670.59
2022-09-15T10:14:34.809Z,97668.41
2022-09-15T10:17:11.765Z,97676.31
2022-09-15T10:20:17.323Z,97680.69
2022-09-15T10:22:47.200Z,97675.41
2022-09-15T10:25:20.280Z,97686.16
2022-09-15T10:28:21.772Z,97681.06
2022-09-15T10:31:15.797Z,97683.31
2022-09-15T10:33:53.246Z,97696.13
2022-09-15T10:36:30.436Z,97699.72
2022-09-15T10:39:18.699Z,97704.72
2022-09-15T10:42:09.528Z,97719.16
2022-09-15T10:44:52.266Z,97718.94
2022-09-15T10:47:40.120Z,97724.22
2022-09-15T10:50:25.993Z,97724.47
2022-09-15T10:53:29.290Z,97727.97
2022-09-15T10:56:35.283Z,97725.88
2022-09-15T10:59:21.138Z,97731.59
2022-09-15T11:02:23.009Z,97730.56
2022-09-15T11:05:27.486Z,97732.50
2022-09-15T11:08:19.117Z,97737.75
2022-09-15T11:11:09.982Z,97740.47
2022-09-15T11:13:59.643Z,97742.06
2022-09-15T11:16:40.554Z,97749.34
2022-09-15T11:19:41.078Z,97750.28
2022-09-15T11:22:24.594Z,97753.13
2022-09-15T11:24:56.516Z,97757.75
2022-09-15T11:28:14.335Z,97759.13
2022-09-15T11:31:13.958Z,97750.56
2022-09-15T11:33:50.704Z,97756.38
2022-09-15T11:36:32.844Z,97756.47
2022-09-15T11:39:09.533Z,97770.03
2022-09-15T11:41:45.204Z,97776.75
2022-09-15T11:44:22.902Z,97779.25
2022-09-15T11:47:27.852Z,97786.22
2022-09-15T11:50:06.315Z,97785.28
2022-09-15T11:53:16.720Z,97791.69
2022-09-15T11:55:51.268Z,97791.09
2022-09-15T11:58:24.838Z,97798.28
2022-09-15T12:00:57.457Z,97803.03
2022-09-15T12:03:37.348Z,97810.78
2022-09-15T12:06:09.601Z,97804.19
2022-09-15T12:08:38.031Z,97805.53
2022-09-15T12:11:10.512Z,97820.59
2022-09-15T12:13:37.580Z,97834.63
2022-09-15T12:16:05.107Z,97827.88
2022-09-15T12:18:41.741Z,97829.59
2022-09-15T12:21:13.412Z,97829.94
2022-09-15T12:23:59.045Z,97841.19
2022-09-15T12:26:27.104Z,97835.28
2022-09-15T12:28:56.160Z,97827.44
2022-09-15T12:31:38.441Z,97840.50
2022-09-15T12:34:36.947Z,97836.41
2022-09-15T12:37:25.683Z,97839.03
2022-09-15T12:39:54.376Z,97844.72
2022-09-15T12:42:31.248Z,97849.03
2022-09-15T12:45:02.982Z,97863.03
2022-09-15T12:47:40.387Z,97867.00
2022-09-15T12:50:16.093Z,97857.75
2022-09-15T12:52:47.138Z,97864.47
2022-09-15T12:55:23.984Z,97865.81
2022-09-15T12:57:53.868Z,97862.66
2022-09-15T13:00:20.301Z,97858.75
2022-09-15T13:02:49.231Z,97865.69
2022-09-15T13:05:46.672Z,97866.47
2022-09-15T13:08:34.569Z,97870.34
2022-09-15T13:11:25.665Z,97863.94
2022-09-15T13:14:15.140Z,97858.53
2022-09-15T13:16:44.006Z,97859.28
2022-09-15T13:19:20.415Z,97868.59
2022-09-15T13:22:13.338Z,97869.75
2022-09-15T13:25:10.878Z,97868.16
2022-09-15T13:27:54.190Z,97869.06
2022-09-15T13:30:20.702Z,97873.47
2022-09-15T13:33:04.895Z,97865.91
2022-09-15T13:35:40.985Z,97866.53
2022-09-15T13:38:46.960Z,97865.38
2022-09-15T13:41:30.942Z,97865.22
2022-09-15T13:44:26.138Z,97867.16
2022-09-15T13:47:20.369Z,97867.53
2022-09-15T13:50:06.191Z,97865.66
2022-09-15T13:52:58.572Z,97862.50
2022-09-15T13:55:28.214Z,97857.59
2022-09-15T14:01:06.860Z,97858.25
2022-09-15T14:03:48.283Z,97858.13
2022-09-15T14:06:19.619Z,97865.41
2022-09-15T14:08:51.215Z,97855.44
2022-09-15T14:11:25.602Z,97857.25
2022-09-15T14:13:53.684Z,97854.09
2022-09-15T14:16:24.854Z,97860.97
2022-09-15T14:18:54.184Z,97863.94
2022-09-15T14:21:26.373Z,97868.00
2022-09-15T14:23:56.351Z,97866.03
2022-09-15T14:26:26.602Z,97866.19
2022-09-15T14:29:03.004Z,97861.44
2022-09-15T14:31:38.621Z,97854.22
2022-09-15T14:34:16.203Z,97860.31
2022-09-15T14:36:43.396Z,97849.34
2022-09-15T14:39:20.864Z,97844.97
2022-09-15T14:41:48.676Z,97849.84
2022-09-15T14:47:28.282Z,97861.22
2022-09-15T14:50:09.461Z,97864.97
2022-09-15T14:52:40.937Z,97872.91
2022-09-15T14:55:23.462Z,97858.97
2022-09-15T14:58:15.997Z,97863.09
2022-09-15T15:01:01.714Z,97868.59
2022-09-15T15:03:59.940Z,97870.25
2022-09-15T15:06:34.983Z,97871.81
2022-09-15T15:09:21.536Z,97867.38
2022-09-15T15:11:56.699Z,97880.13
2022-09-15T15:16:52.930Z,97872.28
2022-09-15T15:19:37.907Z,97873.97
2022-09-15T15:22:13.602Z,97880.81
2022-09-15T15:24:46.499Z,97889.75
2022-09-15T15:27:35.321Z,97878.31
2022-09-15T15:30:31.163Z,97881.66
2022-09-15T15:33:25.580Z,97877.47
2022-09-15T15:36:08.820Z,97880.50
2022-09-15T15:38:42.631Z,97877.47
2022-09-15T15:41:22.391Z,97885.66
2022-09-15T15:44:26.601Z,97885.50
2022-09-15T15:46:57.230Z,97881.59
2022-09-15T15:49:29.961Z,97884.00
2022-09-15T15:51:58.563Z,97887.09
2022-09-15T15:54:26.800Z,97887.81
2022-09-15T15:56:53.659Z,97887.38
2022-09-15T15:59:20.735Z,97886.94
2022-09-15T16:01:53.712Z,97885.34
2022-09-15T16:04:22.050Z,97880.66
2022-09-15T16:06:48.618Z,97876.41
2022-09-15T16:09:17.539Z,97882.34
2022-09-15T16:11:44.151Z,97885.50
2022-09-15T16:14:13.735Z,97885.09
2022-09-15T16:16:41.108Z,97885.41
2022-09-15T16:19:09.081Z,97882.25
2022-09-15T16:21:39.834Z,97883.41
2022-09-15T16:24:11.162Z,97894.00
2022-09-15T16:26:39.365Z,97878.97
2022-09-15T16:29:06.836Z,97887.50
2022-09-15T16:31:35.279Z,97888.47
2022-09-15T16:34:03.632Z,97895.69
2022-09-15T16:36:34.002Z,97897.91
2022-09-15T16:39:01.021Z,97893.88
2022-09-15T16:41:30.261Z,97896.44
2022-09-15T16:43:56.888Z,97900.25
2022-09-15T16:46:23.711Z,97903.22
2022-09-15T16:48:50.606Z,97905.91
2022-09-15T16:51:34.746Z,97904.22
2022-09-15T16:54:01.315Z,97904.09
2022-09-15T16:56:27.818Z,97904.81
2022-09-15T16:59:00.161Z,97907.47
2022-09-15T17:01:28.313Z,97912.13
2022-09-15T17:03:56.022Z,97908.53
2022-09-15T17:06:23.380Z,97916.28
2022-09-15T17:08:50.146Z,97915.16
2022-09-15T17:11:19.709Z,97910.81
2022-09-15T17:13:46.874Z,97913.09
2022-09-15T17:16:15.846Z,97918.59
2022-09-15T17:18:42.406Z,97929.53
2022-09-15T17:21:13.551Z,97936.59
2022-09-15T17:23:43.925Z,97937.75
2022-09-15T17:26:30.520Z,97935.38
2022-09-15T17:28:59.520Z,97929.09
2022-09-15T17:31:32.350Z,97933.78
2022-09-15T17:33:59.747Z,97933.44
2022-09-15T17:36:27.740Z,97937.41
2022-09-15T17:38:54.219Z,97935.81
2022-09-15T17:41:22.537Z,97935.03
2022-09-15T17:43:49.512Z,97929.47
2022-09-15T17:46:16.837Z,97931.84
2022-09-15T17:48:43.447Z,97929.47
2022-09-15T17:51:15.162Z,97931.72
2022-09-15T17:53:42.784Z,97932.53
2022-09-15T17:56:09.564Z,97933.34
2022-09-15T17:58:35.998Z,97936.53
2022-09-15T18:01:03.868Z,97936.88
2022-09-15T18:03:34.753Z,97934.84
2022-09-15T18:06:05.253Z,97936.41
2022-09-15T18:08:36.006Z,97929.34
2022-09-15T18:11:04.158Z,97938.00
2022-09-15T18:13:31.294Z,97946.69
2022-09-15T18:16:04.237Z,97946.69
2022-09-15T18:18:30.764Z,97945.91
2022-09-15T18:20:59.323Z,97948.16
2022-09-15T18:23:28.401Z,97950.59
2022-09-15T18:25:55.228Z,97952.16
2022-09-15T18:28:21.671Z,97945.09
2022-09-15T18:30:49.774Z,97958.34
2022-09-15T18:33:24.121Z,97950.47
2022-09-15T18:35:53.201Z,97955.16
2022-09-15T18:38:22.532Z,97955.94
2022-09-15T18:40:53.278Z,97959.03
2022-09-15T18:43:20.773Z,97963.72
2022-09-15T18:45:48.179Z,97967.94
2022-09-15T18:48:14.646Z,97971.38
2022-09-15T18:50:43.422Z,97976.88
2022-09-15T18:53:10.124Z,97976.88
2022-09-15T18:55:36.595Z,97968.22
2022-09-15T18:58:03.014Z,97963.41
2022-09-15T19:00:29.907Z,97969.59
2022-09-15T19:02:58.151Z,97978.19
2022-09-15T19:05:25.176Z,97976.13
2022-09-15T19:07:51.548Z,97979.66
2022-09-15T19:10:21.332Z,97980.00
2022-09-15T19:12:47.674Z,97968.63
2022-09-15T19:15:14.895Z,97976.81
2022-09-15T19:17:42.443Z,97974.75
2022-09-15T19:20:11.120Z,97973.09
2022-09-15T19:22:37.949Z,97981.53
2022-09-15T19:25:06.621Z,97987.22
2022-09-15T19:27:33.529Z,97983.56
2022-09-15T19:30:00.713Z,97988.59
2022-09-15T19:32:27.100Z,97985.84
2022-09-15T19:34:53.603Z,97981.97
2022-09-15T19:37:21.320Z,97981.97
2022-09-15T19:39:48.521Z,97985.19
2022-09-15T19:44:47.823Z,97990.97
2022-09-15T19:47:14.238Z,97989.75
2022-09-15T19:49:40.646Z,97986.56
2022-09-15T19:52:07.252Z,97985.41
2022-09-15T19:54:34.556Z,97992.03
2022-09-15T19:57:01.817Z,97996.72
2022-09-15T19:59:31.726Z,97999.78
2022-09-15T20:02:00.789Z,97998.97
2022-09-15T20:04:28.315Z,97992.28
2022-09-15T20:06:54.950Z,98002.06
2022-09-15T20:09:21.323Z,98003.66
2022-09-15T20:11:47.733Z,97999.34
2022-09-15T20:14:16.417Z,97994.22
2022-09-15T20:16:43.096Z,98004.38
2022-09-15T20:19:09.556Z,98003.91
2022-09-15T20:21:49.675Z,98005.03
2022-09-15T20:24:17.709Z,98008.03
2022-09-15T20:26:44.348Z,98011.88
2022-09-15T20:29:11.444Z,98013.72
2022-09-15T20:31:37.994Z,98011.22
2022-09-15T20:34:04.369Z,98012.25
2022-09-15T20:36:33.386Z,98010.56
2022-09-15T20:39:01.447Z,98010.78
2022-09-15T20:41:28.815Z,98008.25
2022-09-15T20:43:55.307Z,98010.09
2022-09-15T20:46:23.529Z,98009.19
2022-09-15T20:48:51.445Z,98008.72
2022-09-15T20:51:23.186Z,98012.13
2022-09-15T20:53:52.312Z,98010.09
2022-09-15T20:56:23.143Z,98011.09
2022-09-15T20:58:49.525Z,98009.41
2022-09-15T21:01:20.398Z,98011.22
2022-09-15T21:03:47.723Z,98022.50
2022-09-15T21:06:17.425Z,98013.84
2022-09-15T21:08:44.713Z,98012.56
2022-09-15T21:11:11.546Z,98016.44
2022-09-15T21:13:40.620Z,98012.56
2022-09-15T21:16:09.757Z,98019.19
2022-09-15T21:18:39.415Z,98019.06
2022-09-15T21:21:12.088Z,98017.00
2022-09-15T21:23:42.651Z,98014.63
2022-09-15T21:26:19.614Z,98015.75
2022-09-15T21:28:46.199Z,98019.16
2022-09-15T21:31:15.992Z,98023.03
2022-09-15T21:33:44.026Z,98024.13
2022-09-15T21:36:18.509Z,98023.69
2022-09-15T21:38:45.097Z,98027.78
2022-09-15T21:41:14.882Z,98032.31
2022-09-15T21:43:43.076Z,98040.03
2022-09-15T21:46:12.883Z,98039.91
2022-09-15T21:48:40.096Z,98043.66
2022-09-15T21:51:08.027Z,98037.41
2022-09-15T21:53:37.708Z,98039.31
2022-09-15T21:56:05.976Z,98040.44
2022-09-15T21:58:38.942Z,98035.53
2022-09-15T22:01:14.225Z,98034.63
2022-09-15T22:03:42.206Z,98029.81
2022-09-15T22:06:12.822Z,98028.91
2022-09-15T22:08:39.932Z,98030.38
2022-09-15T22:11:07.495Z,98032.66
2022-09-15T22:13:36.390Z,98033.31
2022-09-15T22:16:08.677Z,98034.78
2022-09-15T22:18:39.887Z,98037.72
2022-09-15T22:21:07.547Z,98037.59
2022-09-15T22:23:34.378Z,98029.75
2022-09-15T22:26:06.216Z,98035.31
2022-09-15T22:28:32.864Z,98035.81
2022-09-15T22:31:04.650Z,98036.72
2022-09-15T22:33:31.476Z,98034.66
2022-09-15T22:35:58.481Z,98030.66
2022-09-15T22:38:27.307Z,98043.19
2022-09-15T22:40:54.402Z,98033.06
2022-09-15T22:43:21.289Z,98038.53
2022-09-15T22:45:47.996Z,98037.84
2022-09-15T22:48:14.412Z,98031.25
2022-09-15T22:50:44.573Z,98030.78
2022-09-15T22:53:12.737Z,98036.25
2022-09-15T22:55:39.643Z,98028.72
2022-09-15T22:58:06.780Z,98026.31
2022-09-15T23:00:33.403Z,98033.06
2022-09-15T23:03:00.701Z,98039.78
2022-09-15T23:05:27.164Z,98036.38
2022-09-15T23:07:53.544Z,98034.91
2022-09-15T23:10:20.005Z,98042.44
2022-09-15T23:12:46.438Z,98039.69
2022-09-15T23:15:12.859Z,98034.91
2022-09-15T23:17:39.477Z,98048.56
2022-09-15T23:20:06.282Z,98045.69
2022-09-15T23:22:32.678Z,98047.16
2022-09-15T23:24:59.127Z,98040.47
2022-09-15T23:27:25.580Z,98038.97
2022-09-15T23:29:51.912Z,98039.44
2022-09-15T23:32:18.271Z,98039.44
2022-09-15T23:34:44.604Z,98032.03
2022-09-15T23:37:12.025Z,98028.53
2022-09-15T23:39:38.404Z,98033.97
2022-09-15T23:42:04.826Z,98034.66
2022-09-15T23:44:31.197Z,98036.59
2022-09-15T23:46:57.625Z,98042.06
2022-09-15T23:49:24.091Z,98041.25
2022-09-15T23:51:50.445Z,98039.31
2022-09-15T23:54:16.838Z,98034.66
2022-09-15T23:56:43.330Z,98041.25
2022-09-15T23:59:09.898Z,98036.59
